Vremea acum in Lipova - Romania

Vrei sa afli care e starea vremii acum in Arad - Romania? Dorim sa iti furnizam starea vremii pentru Arad - Romania. Starea vremii Arad - Romania pentru astazi.

Vremea acum in Lipova

Temperatura: 0 °C

Se simte ca: -3 °C
Innorat: 0 %
Precipitatii: 0 %
Presiune atmosferica: 1019 hPa
Umiditate: 93%
Vizibilitate: 9 km
Vantul bate din ENE cu 9 km/h

Evolutia vremii in Lipova pe ore

Ora: 14:00
Parțial noros
Temperatura: 3.8°C
Sansa de precipitatii: 0%
Ora Descriere Temp Se simte Precipitatii Umiditate Vant
00:00Parțial noros-0.9°-4.2°0%84%NE 9 KM/H
01:00Parțial noros-1.1°-4.5°0%83%NE 9.7 KM/H
02:00Parțial noros-1.2°-4.9°0%83%NE 10.4 KM/H
03:00Parțial noros-1.2°-4.9°0%82%NE 10.1 KM/H
04:00Parțial noros-1.3°-4.8°0%81%NE 10.1 KM/H
05:00Parțial noros-1.3°-4.8°0%80%NE 9.7 KM/H
06:00Parțial noros-1.4°-4.8°0%80%NE 9.4 KM/H
07:00Parțial noros-1.4°-4.8°0%79%NE 9.4 KM/H
08:00Parțial noros-1.5°-4.8°0%78%NE 9 KM/H
09:00Noros-0.4°-3.5°0%72%NE 9 KM/H
10:00Parțial noros0.7°-2.3°0%65%NE 9.4 KM/H
11:00Noros1.8°-1°0%58%NE 9.4 KM/H
12:00Parțial noros2.5°-0.2°0%55%NE 9.4 KM/H
13:00Noros3.1°0.6°0%51%NE 9.4 KM/H
14:00Parțial noros3.8°1.4°0%48%NE 9.4 KM/H
15:00Noros2.9°0.2°0%54%NE 9.7 KM/H
16:00Parțial noros1.9°-1°0%59%NE 10.1 KM/H
17:00Noros-2.2°0%65%NNE 10.4 KM/H
18:00Noros0.9°-2.2°0%66%NNE 10.1 KM/H
19:00Noros0.7°-2.3°0%67%NE 9.4 KM/H
20:00Noros0.6°-2.3°0%68%NE 9 KM/H
21:00Noros0.6°-2.1°0%68%NE 8.3 KM/H
22:00Noros0.6°-2°0%67%NE 7.9 KM/H
23:00Noros0.6°-1.8°0%67%NE 7.2 KM/H